Time;durP1;ratioP1;P1;durP2;ratioP2;P2;SDS_P1;SDS_P2;PMS_P1;PMS_P2;Temp;Humidity;BMP_temperature;BMP_pressure;BME280_temperature;BME280_humidity;BME280_pressure;Samples;Min_cycle;Max_cycle;Signal;HPM_P1;HPM_P2
2024/01/18 00:00:18;;;;;;;1.20;0.50;;;7.40;99.90;;;;;;5054538;28;20669;-62
2024/01/18 00:02:44;;;;;;;2.30;0.80;;;7.30;99.90;;;;;;5045390;28;20182;-62
2024/01/18 00:05:09;;;;;;;1.73;0.80;;;8.20;99.90;;;;;;5047873;28;20206;-62
2024/01/18 00:07:35;;;;;;;1.60;0.70;;;8.20;99.90;;;;;;5035135;28;20277;-63
2024/01/18 00:10:00;;;;;;;2.20;0.83;;;7.80;99.90;;;;;;5037330;28;20185;-63
2024/01/18 00:12:26;;;;;;;1.60;0.60;;;8.40;99.90;;;;;;5063857;28;20204;-62
2024/01/18 00:14:51;;;;;;;1.10;0.50;;;7.20;99.90;;;;;;5058756;28;20528;-62
2024/01/18 00:17:17;;;;;;;1.50;0.73;;;8.50;99.90;;;;;;5054546;28;20680;-63
2024/01/18 00:19:42;;;;;;;1.40;0.67;;;8.50;99.90;;;;;;5052033;28;20186;-62
2024/01/18 00:22:08;;;;;;;1.70;0.73;;;8.00;99.90;;;;;;5043288;28;20213;-62
2024/01/18 00:24:33;;;;;;;1.60;0.80;;;7.20;99.90;;;;;;5054048;28;20253;-62
2024/01/18 00:27:00;;;;;;;1.30;0.87;;;8.70;99.90;;;;;;5054693;28;20189;-62
2024/01/18 00:29:26;;;;;;;2.37;0.97;;;8.50;99.90;;;;;;5031295;28;20269;-63
2024/01/18 00:31:51;;;;;;;3.97;1.10;;;8.10;99.90;;;;;;5049332;28;20856;-62
2024/01/18 00:34:17;;;;;;;2.60;0.70;;;8.50;99.90;;;;;;5047951;28;20185;-62
2024/01/18 00:36:42;;;;;;;1.97;0.80;;;8.60;99.90;;;;;;5051010;28;20239;-63
2024/01/18 00:39:16;;;;;;;1.20;0.70;;;7.10;99.90;;;;;;5050478;28;20189;-63
2024/01/18 00:41:41;;;;;;;3.23;1.30;;;8.40;99.90;;;;;;5042012;28;20185;-62
2024/01/18 00:44:07;;;;;;;1.97;0.90;;;8.50;99.90;;;;;;5040776;28;20439;-62
2024/01/18 00:46:32;;;;;;;1.77;0.80;;;7.00;99.90;;;;;;5047798;28;20702;-62
2024/01/18 00:48:57;;;;;;;1.10;0.53;;;7.80;99.90;;;;;;5050779;28;20184;-62
2024/01/18 00:51:23;;;;;;;1.17;0.60;;;8.10;99.90;;;;;;5047018;28;20206;-63
2024/01/18 00:53:48;;;;;;;1.83;0.70;;;8.20;99.90;;;;;;5039863;28;20204;-62
2024/01/18 00:56:14;;;;;;;1.30;0.70;;;8.40;99.90;;;;;;5023394;28;20235;-63
2024/01/18 00:58:40;;;;;;;2.70;0.70;;;7.70;99.90;;;;;;5051981;28;20193;-63
2024/01/18 01:01:06;;;;;;;1.80;0.60;;;7.90;99.90;;;;;;5045348;28;20182;-63
2024/01/18 01:03:31;;;;;;;4.40;0.60;;;8.20;99.90;;;;;;5045122;28;20417;-63
2024/01/18 01:05:57;;;;;;;1.30;0.60;;;8.40;99.90;;;;;;5042735;28;20213;-62
2024/01/18 01:08:22;;;;;;;3.23;1.23;;;7.40;99.90;;;;;;5045367;28;20178;-63
2024/01/18 01:10:48;;;;;;;1.27;0.70;;;8.20;99.90;;;;;;5044450;28;20201;-63
2024/01/18 01:13:13;;;;;;;1.10;0.70;;;8.30;99.90;;;;;;5045826;28;20874;-62
2024/01/18 01:15:39;;;;;;;2.03;0.87;;;8.10;99.90;;;;;;5043243;28;20238;-62
2024/01/18 01:18:04;;;;;;;1.10;0.50;;;7.30;99.90;;;;;;5036506;28;20182;-63
2024/01/18 01:20:30;;;;;;;1.30;0.80;;;7.80;99.90;;;;;;5037133;28;20179;-63
2024/01/18 01:22:56;;;;;;;2.67;0.90;;;8.10;99.90;;;;;;5042947;28;20231;-62
2024/01/18 01:25:22;;;;;;;1.20;0.60;;;8.50;99.90;;;;;;5044550;28;20227;-62
2024/01/18 01:27:48;;;;;;;2.13;0.60;;;7.30;99.90;;;;;;5049230;28;20511;-62
2024/01/18 01:30:14;;;;;;;1.80;0.73;;;8.60;99.90;;;;;;5039129;28;20186;-62
2024/01/18 01:32:40;;;;;;;1.20;0.60;;;7.80;99.90;;;;;;5039945;28;20492;-62
2024/01/18 01:35:05;;;;;;;1.50;0.50;;;7.20;99.90;;;;;;5037117;28;20467;-62
2024/01/18 01:37:31;;;;;;;1.10;0.50;;;7.20;99.90;;;;;;5041840;28;20190;-62
2024/01/18 01:39:56;;;;;;;1.43;0.80;;;7.80;99.90;;;;;;5040415;28;20186;-62
2024/01/18 01:42:22;;;;;;;1.27;0.57;;;7.20;99.90;;;;;;5034128;28;20197;-62
2024/01/18 01:44:47;;;;;;;1.67;0.60;;;8.20;99.90;;;;;;5043304;28;20619;-62
2024/01/18 01:47:13;;;;;;;1.60;0.70;;;8.60;99.90;;;;;;5042173;28;20216;-62
2024/01/18 01:49:39;;;;;;;1.10;0.60;;;8.30;99.90;;;;;;5039651;28;20350;-62
2024/01/18 01:52:05;;;;;;;5.00;0.60;;;7.20;99.90;;;;;;5035457;28;20679;-62
2024/01/18 01:54:32;;;;;;;1.23;0.60;;;7.20;99.90;;;;;;5041042;28;20432;-62
2024/01/18 01:56:59;;;;;;;1.20;0.70;;;8.40;99.90;;;;;;5033318;28;20198;-63
2024/01/18 01:59:25;;;;;;;1.67;0.87;;;8.50;99.90;;;;;;5041224;28;20425;-63
2024/01/18 02:01:52;;;;;;;2.10;0.77;;;8.20;99.90;;;;;;5038920;28;20436;-62
2024/01/18 02:04:18;;;;;;;1.83;0.70;;;8.10;99.90;;;;;;5030727;28;20267;-62
2024/01/18 02:06:46;;;;;;;1.30;0.70;;;8.40;99.90;;;;;;5033066;28;20478;-62
2024/01/18 02:09:12;;;;;;;1.10;0.50;;;8.60;99.90;;;;;;5034279;28;20431;-63
2024/01/18 02:11:37;;;;;;;1.10;0.50;;;7.30;99.90;;;;;;5031483;28;20465;-63
2024/01/18 02:14:03;;;;;;;1.47;0.60;;;8.30;99.90;;;;;;5035971;28;20195;-62
2024/01/18 02:16:30;;;;;;;1.40;0.70;;;7.30;99.90;;;;;;5030454;28;20194;-62
2024/01/18 02:18:56;;;;;;;1.30;0.60;;;7.80;99.90;;;;;;5038157;28;20421;-62
2024/01/18 02:21:25;;;;;;;1.97;0.90;;;8.10;99.90;;;;;;5035085;28;20431;-62
2024/01/18 02:23:57;;;;;;;1.40;0.70;;;8.00;99.90;;;;;;5030996;28;20193;-62
2024/01/18 02:26:22;;;;;;;3.10;0.70;;;7.70;99.90;;;;;;5034100;28;20464;-62
2024/01/18 02:28:56;;;;;;;3.83;0.60;;;7.10;99.90;;;;;;5038622;28;20943;-62
2024/01/18 02:31:22;;;;;;;1.60;0.50;;;8.50;99.90;;;;;;5032369;28;20229;-62
2024/01/18 02:33:49;;;;;;;1.40;0.60;;;8.30;99.90;;;;;;5030320;28;20425;-62
2024/01/18 02:36:15;;;;;;;2.47;0.80;;;8.20;99.90;;;;;;5032915;28;20191;-62
2024/01/18 02:38:41;;;;;;;1.40;0.60;;;7.10;99.90;;;;;;5030086;28;20461;-63
2024/01/18 02:41:06;;;;;;;1.57;0.83;;;7.30;99.90;;;;;;5034121;28;20514;-62
2024/01/18 02:43:33;;;;;;;6.47;1.40;;;8.50;99.90;;;;;;5035103;28;20181;-62
2024/01/18 02:45:58;;;;;;;1.77;0.70;;;8.60;99.90;;;;;;5036284;28;20213;-62
2024/01/18 02:48:24;;;;;;;1.83;0.77;;;7.20;99.90;;;;;;5032616;28;20944;-62
2024/01/18 02:50:50;;;;;;;1.33;0.60;;;7.20;99.90;;;;;;5040514;28;20198;-62
2024/01/18 02:53:15;;;;;;;3.00;1.20;;;7.10;99.90;;;;;;5030246;28;20194;-62
2024/01/18 02:55:41;;;;;;;1.87;1.20;;;7.10;99.90;;;;;;5032031;28;20232;-63
2024/01/18 02:58:06;;;;;;;1.10;0.50;;;7.10;99.90;;;;;;5033053;28;20683;-62
2024/01/18 03:00:32;;;;;;;1.87;0.77;;;8.10;99.90;;;;;;5032774;28;20268;-62
2024/01/18 03:02:57;;;;;;;3.43;0.70;;;8.10;99.90;;;;;;5035936;28;20273;-63
2024/01/18 03:05:23;;;;;;;1.30;0.70;;;8.40;99.90;;;;;;5037903;28;20194;-62
2024/01/18 03:07:48;;;;;;;1.30;0.73;;;7.80;99.90;;;;;;5032414;28;20186;-62
2024/01/18 03:10:14;;;;;;;2.03;0.80;;;7.00;99.90;;;;;;5029238;28;20198;-62
2024/01/18 03:12:40;;;;;;;1.30;0.80;;;6.90;99.90;;;;;;5030176;28;20297;-63
2024/01/18 03:15:08;;;;;;;2.10;1.20;;;7.90;99.90;;;;;;5030774;28;20190;-63
2024/01/18 03:17:33;;;;;;;1.40;0.90;;;7.00;99.90;;;;;;5039940;28;20281;-62
2024/01/18 03:19:59;;;;;;;2.27;0.93;;;6.80;99.90;;;;;;5030965;28;20500;-62
2024/01/18 03:22:24;;;;;;;2.00;1.10;;;8.10;99.90;;;;;;5029783;28;20209;-62
2024/01/18 03:24:52;;;;;;;1.20;0.70;;;8.00;99.90;;;;;;5041579;28;20241;-62
2024/01/18 03:27:20;;;;;;;1.60;0.90;;;7.20;99.90;;;;;;5030989;28;20196;-62
2024/01/18 03:29:45;;;;;;;1.90;0.90;;;7.70;99.90;;;;;;5038741;28;20437;-62
2024/01/18 03:32:12;;;;;;;1.30;0.70;;;7.10;99.90;;;;;;5033911;28;20582;-62
2024/01/18 03:34:37;;;;;;;1.60;0.80;;;6.80;99.90;;;;;;5033866;28;20190;-62
2024/01/18 03:37:03;;;;;;;5.70;1.10;;;7.80;99.90;;;;;;5035257;28;20421;-62
2024/01/18 03:39:33;;;;;;;10.80;1.30;;;6.70;99.90;;;;;;5036695;28;20224;-62
2024/01/18 03:41:59;;;;;;;1.73;1.13;;;7.40;99.90;;;;;;5039081;28;20178;-62
2024/01/18 03:44:24;;;;;;;2.80;1.23;;;6.70;99.90;;;;;;5041119;28;20519;-62
2024/01/18 03:46:49;;;;;;;6.57;1.67;;;7.80;99.90;;;;;;5033886;28;20198;-62
2024/01/18 03:49:15;;;;;;;2.00;1.10;;;7.40;99.90;;;;;;5041501;28;20273;-62
2024/01/18 03:51:40;;;;;;;1.83;0.80;;;7.70;99.90;;;;;;5033482;28;20203;-62
2024/01/18 03:54:06;;;;;;;1.43;0.90;;;6.80;99.90;;;;;;5035287;28;20556;-62
2024/01/18 03:56:31;;;;;;;1.57;0.80;;;7.40;99.90;;;;;;5033889;28;20175;-63
2024/01/18 03:58:57;;;;;;;1.90;1.03;;;6.80;99.90;;;;;;5040318;28;20182;-62
2024/01/18 04:01:22;;;;;;;1.57;1.00;;;7.30;99.90;;;;;;5034542;28;20193;-62
2024/01/18 04:03:48;;;;;;;2.90;0.87;;;8.20;99.90;;;;;;5033066;28;20284;-63
2024/01/18 04:06:15;;;;;;;1.60;0.80;;;7.50;99.90;;;;;;5033450;28;20174;-63
2024/01/18 04:08:41;;;;;;;3.33;1.10;;;8.00;99.90;;;;;;5037153;28;20183;-63
2024/01/18 04:11:06;;;;;;;2.13;1.07;;;7.80;99.90;;;;;;5036135;28;20456;-62
2024/01/18 04:13:32;;;;;;;2.50;1.17;;;8.10;99.90;;;;;;5033558;28;20560;-63
2024/01/18 04:15:57;;;;;;;2.00;1.00;;;8.00;99.90;;;;;;5033077;28;20260;-62
2024/01/18 04:18:23;;;;;;;8.23;1.10;;;7.90;99.90;;;;;;5041949;28;20178;-63
2024/01/18 04:20:52;;;;;;;1.50;1.00;;;8.00;99.90;;;;;;5033089;28;20261;-62
2024/01/18 04:23:19;;;;;;;3.53;2.10;;;7.50;99.90;;;;;;5033057;28;20206;-62
2024/01/18 04:25:45;;;;;;;3.30;1.53;;;7.30;99.90;;;;;;5037885;28;20515;-63
2024/01/18 04:28:10;;;;;;;3.93;1.27;;;7.90;99.90;;;;;;5032941;28;20911;-62
2024/01/18 04:30:36;;;;;;;3.40;1.27;;;6.90;99.90;;;;;;5036403;28;20429;-63
2024/01/18 04:33:01;;;;;;;1.67;0.87;;;7.90;99.90;;;;;;5036141;28;20202;-64
2024/01/18 04:35:27;;;;;;;1.20;0.60;;;7.40;99.90;;;;;;5036294;28;20257;-63
2024/01/18 04:37:52;;;;;;;1.47;0.70;;;7.80;99.90;;;;;;5039002;28;20665;-63
2024/01/18 04:40:18;;;;;;;2.97;1.87;;;6.80;99.90;;;;;;5032829;28;20273;-63
2024/01/18 04:42:43;;;;;;;2.63;1.10;;;6.80;99.90;;;;;;5035297;28;20194;-63
2024/01/18 04:45:09;;;;;;;2.73;1.00;;;7.80;99.90;;;;;;5034187;28;20194;-64
2024/01/18 04:47:35;;;;;;;1.23;0.67;;;8.10;99.90;;;;;;5034551;28;20243;-63
2024/01/18 04:50:01;;;;;;;11.07;1.03;;;8.00;99.90;;;;;;5033718;28;21003;-63
2024/01/18 04:52:26;;;;;;;2.70;0.70;;;7.40;99.90;;;;;;5036429;28;20213;-63
2024/01/18 04:54:52;;;;;;;3.70;1.80;;;7.90;99.90;;;;;;5035154;28;20638;-63
2024/01/18 04:57:17;;;;;;;3.70;1.27;;;7.50;99.90;;;;;;5035739;28;20261;-63
2024/01/18 04:59:43;;;;;;;1.50;0.80;;;7.70;99.90;;;;;;5039864;28;20182;-63
2024/01/18 05:02:08;;;;;;;1.50;0.90;;;7.60;99.90;;;;;;5032339;28;20273;-63
2024/01/18 05:04:34;;;;;;;2.47;1.13;;;6.90;99.90;;;;;;5035211;28;20193;-63
2024/01/18 05:06:59;;;;;;;4.57;0.97;;;7.50;99.90;;;;;;5037323;28;20277;-63
2024/01/18 05:09:25;;;;;;;1.67;0.80;;;6.90;99.90;;;;;;5036370;28;20193;-63
2024/01/18 05:11:51;;;;;;;1.90;1.40;;;6.90;99.90;;;;;;5034467;28;20206;-63
2024/01/18 05:14:17;;;;;;;7.53;1.60;;;7.50;99.90;;;;;;5034394;28;20178;-64
2024/01/18 05:16:43;;;;;;;4.33;1.67;;;7.40;99.90;;;;;;5018112;28;20464;-63
2024/01/18 05:19:09;;;;;;;3.20;0.83;;;7.60;99.90;;;;;;5038123;28;20190;-64
2024/01/18 05:21:34;;;;;;;2.50;0.90;;;7.90;99.90;;;;;;5031633;28;20421;-63
2024/01/18 05:24:00;;;;;;;1.80;0.90;;;7.60;99.90;;;;;;5034134;28;20214;-63
2024/01/18 05:26:25;;;;;;;2.03;1.30;;;6.80;99.90;;;;;;5033984;28;20273;-63
2024/01/18 05:28:51;;;;;;;1.50;0.97;;;6.80;99.90;;;;;;5037514;28;20187;-62
2024/01/18 05:31:16;;;;;;;1.87;1.10;;;7.30;99.90;;;;;;5039005;28;20213;-63
2024/01/18 05:33:42;;;;;;;1.90;1.20;;;7.60;99.90;;;;;;5040637;28;20261;-62
2024/01/18 05:36:07;;;;;;;2.90;1.67;;;6.80;99.90;;;;;;5032613;28;20588;-62
2024/01/18 05:38:33;;;;;;;4.27;1.33;;;6.80;99.90;;;;;;5033278;28;20214;-63
2024/01/18 05:40:59;;;;;;;1.73;1.37;;;7.30;99.90;;;;;;5035239;28;20260;-63
2024/01/18 05:43:25;;;;;;;3.63;1.20;;;7.50;99.90;;;;;;5037859;28;20190;-64
2024/01/18 05:45:50;;;;;;;1.80;1.40;;;7.60;99.90;;;;;;5036711;28;20439;-63
2024/01/18 05:48:16;;;;;;;4.37;1.60;;;6.80;99.90;;;;;;5032168;28;20656;-64
2024/01/18 05:50:42;;;;;;;4.77;2.17;;;7.40;99.90;;;;;;5038443;28;20185;-64
2024/01/18 05:53:07;;;;;;;2.03;1.00;;;7.20;99.90;;;;;;5036456;28;20749;-63
2024/01/18 05:55:34;;;;;;;2.60;1.10;;;6.70;99.90;;;;;;5038785;28;20415;-63
2024/01/18 05:58:00;;;;;;;2.20;1.30;;;6.80;99.90;;;;;;5036184;28;20185;-64
2024/01/18 06:00:25;;;;;;;3.57;1.53;;;7.50;99.90;;;;;;5036129;28;20425;-63
2024/01/18 06:02:51;;;;;;;1.57;1.10;;;7.40;99.90;;;;;;5034400;28;20428;-63
2024/01/18 06:05:16;;;;;;;1.87;1.27;;;6.70;99.90;;;;;;5036712;28;20968;-63
2024/01/18 06:07:42;;;;;;;2.77;1.43;;;7.50;99.90;;;;;;5034751;28;20580;-63
2024/01/18 06:10:08;;;;;;;1.83;0.90;;;7.30;99.90;;;;;;5031461;28;20190;-63
2024/01/18 06:12:33;;;;;;;1.40;0.77;;;6.80;99.90;;;;;;5034980;28;20210;-63
2024/01/18 06:14:59;;;;;;;5.97;1.77;;;6.80;99.90;;;;;;5036661;28;20182;-63
2024/01/18 06:17:24;;;;;;;2.60;1.27;;;7.00;99.90;;;;;;5032720;28;20588;-63
2024/01/18 06:19:50;;;;;;;1.97;1.23;;;6.70;99.90;;;;;;5030778;28;20205;-63
2024/01/18 06:22:15;;;;;;;3.10;1.60;;;7.30;99.90;;;;;;5041759;28;20185;-63
2024/01/18 06:24:41;;;;;;;1.57;1.20;;;6.70;99.90;;;;;;5038264;28;20328;-63
2024/01/18 06:27:06;;;;;;;2.60;1.27;;;6.70;99.90;;;;;;5037317;28;20227;-63
2024/01/18 06:29:32;;;;;;;2.17;1.70;;;7.40;99.90;;;;;;5034335;28;20190;-63
2024/01/18 06:31:58;;;;;;;2.50;1.00;;;7.40;99.90;;;;;;5031655;28;20297;-63
2024/01/18 06:34:23;;;;;;;1.63;0.97;;;7.40;99.90;;;;;;5030812;28;20519;-63
2024/01/18 06:36:49;;;;;;;3.73;1.13;;;6.70;99.90;;;;;;5034142;28;20175;-62
2024/01/18 06:39:15;;;;;;;1.33;0.77;;;7.20;99.90;;;;;;5031818;28;20182;-63
2024/01/18 06:41:41;;;;;;;3.27;1.27;;;7.40;99.90;;;;;;5030188;28;20421;-63
2024/01/18 06:44:07;;;;;;;3.53;1.00;;;6.60;99.90;;;;;;5035260;28;20417;-63
2024/01/18 06:46:32;;;;;;;2.53;1.10;;;7.20;99.90;;;;;;5031602;28;20189;-63
2024/01/18 06:48:59;;;;;;;2.30;1.20;;;6.70;99.90;;;;;;5036569;28;20239;-63
2024/01/18 06:51:25;;;;;;;2.10;1.27;;;7.90;99.90;;;;;;5032511;28;20201;-63
2024/01/18 06:53:51;;;;;;;1.43;0.70;;;7.50;99.90;;;;;;5020010;28;20418;-63
2024/01/18 06:56:16;;;;;;;3.70;1.60;;;7.20;99.90;;;;;;5033901;28;20183;-63
2024/01/18 06:58:43;;;;;;;3.90;1.70;;;7.60;99.90;;;;;;5036470;28;20167;-63
2024/01/18 07:01:10;;;;;;;2.53;1.13;;;7.00;99.90;;;;;;5021725;28;20639;-63
2024/01/18 07:03:36;;;;;;;3.43;1.57;;;7.00;99.90;;;;;;5029245;28;20440;-63
2024/01/18 07:06:05;;;;;;;5.07;1.23;;;7.30;99.90;;;;;;5030970;28;20417;-63
2024/01/18 07:08:31;;;;;;;1.67;1.00;;;6.60;99.90;;;;;;5044929;28;20581;-63
2024/01/18 07:10:57;;;;;;;3.40;1.60;;;6.70;99.90;;;;;;5029811;28;20413;-64
2024/01/18 07:13:23;;;;;;;1.40;0.80;;;7.50;99.90;;;;;;5029427;28;20909;-63
2024/01/18 07:15:48;;;;;;;1.97;1.10;;;7.00;99.90;;;;;;5030298;28;20413;-63
2024/01/18 07:18:14;;;;;;;2.23;1.10;;;7.20;99.90;;;;;;5022165;28;20599;-64
2024/01/18 07:20:39;;;;;;;7.30;1.40;;;7.30;99.90;;;;;;5035014;28;20197;-64
2024/01/18 07:23:05;;;;;;;2.60;0.83;;;7.30;99.90;;;;;;5038328;28;20685;-64
2024/01/18 07:25:31;;;;;;;1.17;0.53;;;7.20;99.90;;;;;;5039646;28;20240;-63
2024/01/18 07:27:57;;;;;;;1.60;0.57;;;6.70;99.90;;;;;;5038597;28;20535;-64
2024/01/18 07:30:22;;;;;;;1.83;1.00;;;7.20;99.90;;;;;;5042415;28;20432;-64
2024/01/18 07:32:48;;;;;;;2.07;0.80;;;7.40;99.90;;;;;;5031977;28;20256;-64
2024/01/18 07:35:15;;;;;;;1.10;0.60;;;7.60;99.90;;;;;;5029548;28;20251;-64
2024/01/18 07:37:40;;;;;;;3.20;1.10;;;6.60;99.90;;;;;;5043018;28;20508;-64
2024/01/18 07:40:07;;;;;;;1.40;0.60;;;6.60;99.90;;;;;;5038704;28;20509;-64
2024/01/18 07:42:32;;;;;;;1.60;0.80;;;6.60;99.90;;;;;;5029410;28;20244;-64
2024/01/18 07:44:58;;;;;;;1.20;0.60;;;6.60;99.90;;;;;;5046936;28;20432;-64
2024/01/18 07:47:24;;;;;;;2.27;0.73;;;7.40;99.90;;;;;;5038995;28;20608;-64
2024/01/18 07:49:50;;;;;;;1.00;0.50;;;7.40;99.90;;;;;;5038781;28;20655;-64
2024/01/18 07:52:17;;;;;;;1.10;0.50;;;6.70;99.90;;;;;;5033884;28;20468;-65
2024/01/18 07:54:42;;;;;;;1.20;0.70;;;6.70;99.90;;;;;;5033574;28;20440;-65
2024/01/18 07:57:08;;;;;;;1.10;0.53;;;7.20;99.90;;;;;;5045280;28;20809;-65
2024/01/18 07:59:34;;;;;;;1.10;0.40;;;7.30;99.90;;;;;;5036708;28;20523;-65
2024/01/18 08:02:00;;;;;;;1.60;0.67;;;6.80;99.90;;;;;;5030844;28;20230;-64
2024/01/18 08:04:26;;;;;;;2.30;0.70;;;7.90;99.90;;;;;;5033742;28;20468;-65
2024/01/18 08:06:52;;;;;;;1.57;0.73;;;8.10;99.90;;;;;;5035937;28;20193;-65
2024/01/18 08:09:18;;;;;;;5.03;0.60;;;8.40;99.90;;;;;;5040355;28;21853;-65
2024/01/18 08:11:43;;;;;;;1.47;0.50;;;8.50;99.90;;;;;;5041111;28;20475;-65
2024/01/18 08:14:11;;;;;;;3.50;0.73;;;8.40;99.90;;;;;;5032164;28;20190;-65
2024/01/18 08:16:36;;;;;;;1.93;0.60;;;7.60;99.90;;;;;;5045748;28;20181;-65
2024/01/18 08:19:02;;;;;;;1.63;0.83;;;8.40;99.90;;;;;;5038714;28;20436;-64
2024/01/18 08:21:27;;;;;;;2.00;0.60;;;8.70;99.90;;;;;;5034712;28;20191;-65
2024/01/18 08:23:53;;;;;;;3.40;0.90;;;8.40;99.90;;;;;;5033084;28;20182;-64
2024/01/18 08:26:20;;;;;;;3.90;1.17;;;7.00;99.90;;;;;;5044055;28;20188;-65
2024/01/18 08:28:46;;;;;;;3.63;1.17;;;8.50;99.90;;;;;;5036353;28;20432;-65
2024/01/18 08:31:12;;;;;;;1.00;0.50;;;8.10;99.90;;;;;;5038608;28;20466;-65
2024/01/18 08:33:37;;;;;;;2.30;0.60;;;8.30;99.90;;;;;;5040791;28;20867;-65
2024/01/18 08:36:04;;;;;;;2.60;1.53;;;8.50;99.90;;;;;;5036838;28;20177;-65
2024/01/18 08:38:30;;;;;;;2.33;0.83;;;6.90;99.90;;;;;;5045033;28;20691;-65
2024/01/18 08:40:56;;;;;;;2.70;0.63;;;8.50;99.90;;;;;;5044959;28;20421;-66
2024/01/18 08:43:26;;;;;;;3.43;1.20;;;6.90;99.90;;;;;;5045299;28;20435;-65
2024/01/18 08:45:52;;;;;;;3.23;1.90;;;7.90;99.90;;;;;;5043410;28;20420;-65
2024/01/18 08:48:18;;;;;;;2.70;1.57;;;7.30;99.90;;;;;;5032918;28;20490;-65
2024/01/18 08:50:43;;;;;;;3.57;1.50;;;7.00;99.90;;;;;;5035048;28;20422;-65
2024/01/18 08:53:09;;;;;;;2.83;1.97;;;5.50;99.90;;;;;;5034837;28;20199;-65
2024/01/18 08:55:37;;;;;;;1.97;1.30;;;6.60;99.90;;;;;;5035490;28;22367;-65
2024/01/18 08:58:04;;;;;;;2.50;1.13;;;4.90;99.90;;;;;;5039363;28;20182;-65
2024/01/18 09:00:30;;;;;;;9.57;2.20;;;4.70;99.90;;;;;;5040511;28;20621;-66
2024/01/18 09:02:55;;;;;;;3.60;1.50;;;6.00;99.90;;;;;;5043868;28;20429;-65
2024/01/18 09:05:21;;;;;;;1.93;1.30;;;4.30;99.90;;;;;;5045219;28;20186;-65
2024/01/18 09:07:46;;;;;;;2.10;1.00;;;4.90;99.90;;;;;;5041759;28;20942;-65
2024/01/18 09:10:12;;;;;;;2.07;1.23;;;4.00;99.90;;;;;;5037415;28;20241;-65
2024/01/18 09:12:37;;;;;;;2.00;1.20;;;3.70;99.90;;;;;;5034542;28;20613;-66
2024/01/18 09:15:03;;;;;;;2.17;1.70;;;4.50;99.90;;;;;;5037206;28;20205;-65
2024/01/18 09:17:29;;;;;;;2.93;1.60;;;3.40;99.90;;;;;;5031639;28;20266;-66
2024/01/18 09:19:54;;;;;;;2.80;2.00;;;3.40;99.90;;;;;;5046554;28;20244;-65
2024/01/18 09:22:20;;;;;;;2.07;1.20;;;4.40;99.90;;;;;;5034818;28;20232;-65
2024/01/18 09:24:46;;;;;;;2.83;1.57;;;4.20;99.90;;;;;;5030395;28;20241;-65
2024/01/18 09:27:11;;;;;;;2.37;1.43;;;3.20;99.90;;;;;;5028036;28;20424;-65
2024/01/18 09:29:37;;;;;;;2.60;0.97;;;3.10;99.90;;;;;;5035125;28;20202;-65
2024/01/18 09:32:03;;;;;;;2.33;1.40;;;3.00;99.90;;;;;;5041360;28;20264;-65
2024/01/18 09:34:29;;;;;;;2.70;1.20;;;2.90;99.90;;;;;;5033332;28;20184;-65
2024/01/18 09:36:54;;;;;;;1.20;0.70;;;4.40;99.90;;;;;;5037408;28;20765;-65
2024/01/18 09:39:20;;;;;;;1.43;0.77;;;2.80;99.90;;;;;;5043274;28;20549;-65
2024/01/18 09:41:51;;;;;;;1.73;0.90;;;2.60;99.90;;;;;;5029945;28;20228;-65
2024/01/18 09:44:24;;;;;;;1.20;0.60;;;2.50;99.90;;;;;;5036642;28;20185;-65
2024/01/18 09:46:50;;;;;;;1.20;0.70;;;2.40;99.90;;;;;;5037742;28;20853;-65
2024/01/18 09:49:16;;;;;;;1.30;0.70;;;2.10;99.90;;;;;;5033424;28;20412;-65
2024/01/18 09:51:43;;;;;;;6.40;1.40;;;2.00;99.90;;;;;;5031529;28;20233;-65
2024/01/18 09:54:09;;;;;;;1.83;0.80;;;1.90;99.90;;;;;;5032611;28;20450;-65
2024/01/18 09:56:42;;;;;;;1.20;0.63;;;1.60;99.90;;;;;;5034215;28;21338;-65
2024/01/18 09:59:08;;;;;;;2.50;0.57;;;1.60;99.90;;;;;;5042282;28;20162;-65
2024/01/18 10:01:34;;;;;;;2.03;0.70;;;1.50;99.90;;;;;;5038437;28;20433;-65
2024/01/18 10:04:00;;;;;;;1.10;0.60;;;1.40;99.90;;;;;;5035662;28;20419;-65
2024/01/18 10:06:25;;;;;;;1.20;0.60;;;1.40;99.90;;;;;;5034047;28;20188;-65
2024/01/18 10:08:52;;;;;;;1.10;0.67;;;1.30;99.90;;;;;;5036154;28;20258;-65
2024/01/18 10:11:19;;;;;;;2.53;0.77;;;1.20;99.90;;;;;;5031187;28;20244;-65
2024/01/18 10:13:52;;;;;;;1.10;0.50;;;1.20;99.90;;;;;;5034318;28;20412;-65
2024/01/18 10:16:32;;;;;;;1.17;0.60;;;1.10;99.90;;;;;;5034518;28;20620;-65
2024/01/18 10:19:02;;;;;;;1.20;0.60;;;1.00;99.90;;;;;;5029205;28;20432;-65
2024/01/18 10:21:28;;;;;;;1.50;0.97;;;0.90;99.90;;;;;;5042358;28;20424;-65
2024/01/18 10:23:54;;;;;;;1.20;0.70;;;1.00;99.90;;;;;;5035058;28;20429;-65
2024/01/18 10:26:30;;;;;;;2.63;0.90;;;1.00;99.90;;;;;;5043614;28;20424;-64
2024/01/18 10:28:56;;;;;;;1.77;0.77;;;0.80;99.90;;;;;;5039725;28;20184;-64
2024/01/18 10:31:22;;;;;;;1.20;0.80;;;0.90;99.90;;;;;;5034941;28;20460;-65
2024/01/18 10:33:47;;;;;;;1.30;0.70;;;0.80;99.90;;;;;;5031779;28;20432;-65
2024/01/18 10:36:13;;;;;;;1.33;0.70;;;0.80;99.90;;;;;;5034578;28;20192;-64
2024/01/18 10:38:39;;;;;;;1.40;0.80;;;0.70;99.90;;;;;;5035776;28;20561;-65
2024/01/18 10:41:06;;;;;;;1.73;0.90;;;0.70;99.90;;;;;;5040138;28;20189;-64
2024/01/18 10:43:32;;;;;;;1.27;0.70;;;0.70;99.90;;;;;;5041491;28;20177;-64
2024/01/18 10:45:59;;;;;;;2.30;0.60;;;0.60;99.90;;;;;;5035618;28;21022;-64
2024/01/18 10:48:30;;;;;;;1.40;0.87;;;0.60;99.90;;;;;;5033007;28;20461;-64
2024/01/18 10:50:56;;;;;;;2.50;0.80;;;0.60;99.90;;;;;;5037018;28;20424;-64
2024/01/18 10:53:29;;;;;;;1.60;0.77;;;0.60;99.90;;;;;;5039994;28;20472;-64
2024/01/18 10:55:55;;;;;;;1.10;0.60;;;0.60;99.90;;;;;;5035087;28;20432;-64
2024/01/18 10:58:21;;;;;;;1.87;1.13;;;0.60;99.90;;;;;;5043288;28;20417;-65
2024/01/18 11:00:49;;;;;;;1.10;0.53;;;0.60;99.90;;;;;;5032875;28;20198;-64
2024/01/18 11:03:15;;;;;;;1.00;0.50;;;0.60;99.90;;;;;;5029105;28;20689;-65
2024/01/18 11:05:48;;;;;;;1.23;0.70;;;0.60;99.90;;;;;;5035671;28;20881;-65
2024/01/18 11:08:14;;;;;;;1.37;0.70;;;0.60;99.90;;;;;;5035717;28;20435;-64
2024/01/18 11:10:42;;;;;;;1.80;0.73;;;0.60;99.90;;;;;;5037126;28;20459;-64
2024/01/18 11:13:09;;;;;;;1.50;0.83;;;0.60;99.90;;;;;;5033479;28;20867;-64
2024/01/18 11:15:36;;;;;;;1.30;0.60;;;0.70;99.90;;;;;;5030033;28;20467;-64
2024/01/18 11:18:09;;;;;;;2.03;0.97;;;0.70;99.90;;;;;;5033293;28;20428;-64
2024/01/18 11:20:54;;;;;;;2.33;0.70;;;0.70;99.90;;;;;;5037290;28;20488;-64
2024/01/18 11:23:25;;;;;;;3.83;1.53;;;0.80;99.90;;;;;;5035461;28;20509;-65
2024/01/18 11:25:51;;;;;;;1.30;0.70;;;0.90;99.90;;;;;;5029887;28;20480;-65
2024/01/18 11:28:25;;;;;;;1.20;0.60;;;0.90;99.90;;;;;;5034503;28;20445;-65
2024/01/18 11:30:51;;;;;;;1.53;0.70;;;0.80;99.90;;;;;;5032485;28;20672;-64
2024/01/18 11:33:17;;;;;;;4.80;1.83;;;0.90;99.90;;;;;;5035104;28;20460;-65
2024/01/18 11:35:42;;;;;;;1.40;0.80;;;1.10;99.90;;;;;;5034577;28;20186;-64
2024/01/18 11:38:24;;;;;;;1.30;0.60;;;0.90;99.90;;;;;;5039711;28;20233;-65
2024/01/18 11:40:56;;;;;;;1.87;1.00;;;0.80;99.90;;;;;;5032976;28;20190;-65
2024/01/18 11:43:24;;;;;;;2.07;0.80;;;0.80;99.90;;;;;;5034079;28;20730;-66
2024/01/18 11:45:50;;;;;;;1.30;0.70;;;0.70;99.90;;;;;;5032618;28;20512;-66
2024/01/18 11:48:16;;;;;;;1.53;0.63;;;0.60;99.90;;;;;;5032800;28;20421;-65
2024/01/18 11:50:42;;;;;;;1.43;0.90;;;0.70;99.90;;;;;;5039966;28;20428;-65
2024/01/18 11:53:11;;;;;;;2.93;0.80;;;0.70;99.90;;;;;;5041834;28;20488;-66
2024/01/18 11:55:41;;;;;;;1.93;1.33;;;0.80;99.90;;;;;;5037194;28;20177;-66
2024/01/18 11:58:08;;;;;;;1.30;0.90;;;0.70;99.90;;;;;;5044907;28;20425;-65
2024/01/18 12:00:33;;;;;;;1.40;1.03;;;0.70;99.90;;;;;;5035627;28;20435;-65
2024/01/18 12:03:03;;;;;;;2.00;1.30;;;0.60;99.90;;;;;;5036665;28;20496;-66
2024/01/18 12:05:28;;;;;;;1.80;1.00;;;0.50;99.90;;;;;;5038423;28;20185;-65
2024/01/18 12:07:55;;;;;;;1.40;1.10;;;0.50;99.90;;;;;;5037736;28;21302;-65
2024/01/18 12:10:21;;;;;;;3.50;1.47;;;0.40;99.90;;;;;;5033745;28;20210;-65
2024/01/18 12:12:46;;;;;;;1.40;1.00;;;0.30;99.90;;;;;;5043017;28;20457;-65
2024/01/18 12:15:17;;;;;;;1.60;1.30;;;0.30;99.90;;;;;;5039103;28;20191;-66
2024/01/18 12:17:44;;;;;;;2.03;1.53;;;0.30;99.90;;;;;;5039682;28;20174;-65
2024/01/18 12:20:14;;;;;;;2.03;1.47;;;0.30;99.90;;;;;;5035970;28;20898;-65
2024/01/18 12:22:39;;;;;;;17.80;6.47;;;1.60;99.90;;;;;;5033897;28;20956;-66
2024/01/18 12:25:06;;;;;;;3.00;1.93;;;0.40;99.90;;;;;;5034629;28;20548;-66
2024/01/18 12:27:31;;;;;;;3.57;1.53;;;0.40;99.90;;;;;;5051918;28;20274;-66
2024/01/18 12:29:57;;;;;;;9.87;3.50;;;0.30;99.90;;;;;;5043120;28;20508;-66
2024/01/18 12:32:23;;;;;;;8.83;2.97;;;0.40;99.90;;;;;;5033441;28;20202;-66
2024/01/18 12:34:48;;;;;;;5.87;3.33;;;0.40;99.90;;;;;;5042795;28;20228;-66
2024/01/18 12:37:14;;;;;;;18.50;8.37;;;0.30;99.90;;;;;;5039792;28;20253;-65
2024/01/18 12:39:39;;;;;;;6.97;2.93;;;0.30;99.90;;;;;;5036755;28;20178;-65
2024/01/18 12:42:05;;;;;;;4.77;2.73;;;0.20;99.90;;;;;;5034758;28;20190;-65
2024/01/18 12:44:31;;;;;;;9.60;4.80;;;0.10;99.90;;;;;;5038818;28;20201;-65
2024/01/18 12:46:58;;;;;;;6.10;3.83;;;0.00;99.90;;;;;;5033416;28;20194;-64
2024/01/18 12:49:25;;;;;;;4.07;2.80;;;-0.10;99.90;;;;;;5038195;28;20216;-64
2024/01/18 12:51:58;;;;;;;2.93;1.80;;;0.00;99.90;;;;;;5036055;28;20469;-64